sensor_id;sensor_type;location;lat;lon;timestamp;temperature;humidity
25716;DHT22;13573;50.936;4.328;2023-03-01T00:00:06;1.80;99.90
25716;DHT22;13573;50.936;4.328;2023-03-01T00:02:33;0.60;99.90
25716;DHT22;13573;50.936;4.328;2023-03-01T00:05:00;0.90;99.90
25716;DHT22;13573;50.936;4.328;2023-03-01T00:07:26;0.40;99.90
25716;DHT22;13573;50.936;4.328;2023-03-01T00:09:53;1.40;99.90
25716;DHT22;13573;50.936;4.328;2023-03-01T00:12:20;0.30;99.90
25716;DHT22;13573;50.936;4.328;2023-03-01T00:14:47;0.50;99.90
25716;DHT22;13573;50.936;4.328;2023-03-01T00:17:13;0.20;99.90
25716;DHT22;13573;50.936;4.328;2023-03-01T00:19:40;0.20;99.90
25716;DHT22;13573;50.936;4.328;2023-03-01T00:22:06;0.20;99.90
25716;DHT22;13573;50.936;4.328;2023-03-01T00:24:33;1.50;99.90
25716;DHT22;13573;50.936;4.328;2023-03-01T00:27:00;1.50;99.90
25716;DHT22;13573;50.936;4.328;2023-03-01T00:29:26;1.20;99.90
25716;DHT22;13573;50.936;4.328;2023-03-01T00:31:53;1.10;99.90
25716;DHT22;13573;50.936;4.328;2023-03-01T00:34:19;1.60;99.90
25716;DHT22;13573;50.936;4.328;2023-03-01T00:36:46;1.30;99.90
25716;DHT22;13573;50.936;4.328;2023-03-01T00:39:15;1.60;99.90
25716;DHT22;13573;50.936;4.328;2023-03-01T00:41:42;1.30;99.90
25716;DHT22;13573;50.936;4.328;2023-03-01T00:44:09;1.40;99.90
25716;DHT22;13573;50.936;4.328;2023-03-01T00:46:36;1.30;99.90
25716;DHT22;13573;50.936;4.328;2023-03-01T00:49:02;1.30;99.90
25716;DHT22;13573;50.936;4.328;2023-03-01T00:51:30;1.40;99.90
25716;DHT22;13573;50.936;4.328;2023-03-01T00:53:59;1.00;99.90
25716;DHT22;13573;50.936;4.328;2023-03-01T00:56:27;1.00;99.90
25716;DHT22;13573;50.936;4.328;2023-03-01T00:58:54;1.30;99.90
25716;DHT22;13573;50.936;4.328;2023-03-01T01:01:23;0.10;99.90
25716;DHT22;13573;50.936;4.328;2023-03-01T01:03:54;0.00;99.90
25716;DHT22;13573;50.936;4.328;2023-03-01T01:06:26;1.20;99.90
25716;DHT22;13573;50.936;4.328;2023-03-01T01:08:54;1.60;99.90
25716;DHT22;13573;50.936;4.328;2023-03-01T01:11:22;1.50;99.90
25716;DHT22;13573;50.936;4.328;2023-03-01T01:13:49;1.40;99.90
25716;DHT22;13573;50.936;4.328;2023-03-01T01:16:17;0.00;99.90
25716;DHT22;13573;50.936;4.328;2023-03-01T01:18:45;1.00;99.90
25716;DHT22;13573;50.936;4.328;2023-03-01T01:21:14;0.90;99.90
25716;DHT22;13573;50.936;4.328;2023-03-01T01:23:43;1.00;99.90
25716;DHT22;13573;50.936;4.328;2023-03-01T01:26:15;1.10;99.90
25716;DHT22;13573;50.936;4.328;2023-03-01T01:28:41;1.40;99.90
25716;DHT22;13573;50.936;4.328;2023-03-01T01:31:08;1.50;99.90
25716;DHT22;13573;50.936;4.328;2023-03-01T01:36:05;-0.30;99.90
25716;DHT22;13573;50.936;4.328;2023-03-01T01:38:32;1.00;99.90
25716;DHT22;13573;50.936;4.328;2023-03-01T01:41:00;0.80;99.90
25716;DHT22;13573;50.936;4.328;2023-03-01T01:43:31;0.70;99.90
25716;DHT22;13573;50.936;4.328;2023-03-01T01:46:03;0.80;99.90
25716;DHT22;13573;50.936;4.328;2023-03-01T01:48:39;0.90;99.90
25716;DHT22;13573;50.936;4.328;2023-03-01T01:51:14;1.00;99.90
25716;DHT22;13573;50.936;4.328;2023-03-01T01:53:42;0.80;99.90
25716;DHT22;13573;50.936;4.328;2023-03-01T01:56:11;0.80;99.90
25716;DHT22;13573;50.936;4.328;2023-03-01T01:58:40;1.10;99.90
25716;DHT22;13573;50.936;4.328;2023-03-01T02:01:08;-0.10;99.90
25716;DHT22;13573;50.936;4.328;2023-03-01T02:03:37;1.00;99.90
25716;DHT22;13573;50.936;4.328;2023-03-01T02:06:45;0.80;99.90
25716;DHT22;13573;50.936;4.328;2023-03-01T02:08:59;0.70;99.90
25716;DHT22;13573;50.936;4.328;2023-03-01T02:11:27;0.80;99.90
25716;DHT22;13573;50.936;4.328;2023-03-01T02:13:55;0.40;99.90
25716;DHT22;13573;50.936;4.328;2023-03-01T02:16:22;0.80;99.90
25716;DHT22;13573;50.936;4.328;2023-03-01T02:18:50;1.00;99.90
25716;DHT22;13573;50.936;4.328;2023-03-01T02:21:42;0.40;99.90
25716;DHT22;13573;50.936;4.328;2023-03-01T02:26:57;0.40;99.90
25716;DHT22;13573;50.936;4.328;2023-03-01T02:29:25;0.10;99.90
25716;DHT22;13573;50.936;4.328;2023-03-01T02:31:54;0.50;99.90
25716;DHT22;13573;50.936;4.328;2023-03-01T02:34:24;0.50;99.90
25716;DHT22;13573;50.936;4.328;2023-03-01T02:36:56;0.60;99.90
25716;DHT22;13573;50.936;4.328;2023-03-01T02:39:27;0.20;99.90
25716;DHT22;13573;50.936;4.328;2023-03-01T02:41:56;0.20;99.90
25716;DHT22;13573;50.936;4.328;2023-03-01T02:44:23;0.30;99.90
25716;DHT22;13573;50.936;4.328;2023-03-01T02:46:52;1.10;99.90
25716;DHT22;13573;50.936;4.328;2023-03-01T02:49:23;0.40;99.90
25716;DHT22;13573;50.936;4.328;2023-03-01T02:52:17;0.50;99.90
25716;DHT22;13573;50.936;4.328;2023-03-01T02:55:04;0.10;99.90
25716;DHT22;13573;50.936;4.328;2023-03-01T02:57:34;0.20;99.90
25716;DHT22;13573;50.936;4.328;2023-03-01T03:00:06;0.20;99.90
25716;DHT22;13573;50.936;4.328;2023-03-01T03:02:35;0.30;99.90
25716;DHT22;13573;50.936;4.328;2023-03-01T03:05:09;0.50;99.90
25716;DHT22;13573;50.936;4.328;2023-03-01T03:07:38;0.60;99.90
25716;DHT22;13573;50.936;4.328;2023-03-01T03:10:07;0.80;99.90
25716;DHT22;13573;50.936;4.328;2023-03-01T03:12:34;0.60;99.90
25716;DHT22;13573;50.936;4.328;2023-03-01T03:15:01;0.70;99.90
25716;DHT22;13573;50.936;4.328;2023-03-01T03:17:30;0.30;99.90
25716;DHT22;13573;50.936;4.328;2023-03-01T03:22:24;0.60;99.90
25716;DHT22;13573;50.936;4.328;2023-03-01T03:24:50;0.20;99.90
25716;DHT22;13573;50.936;4.328;2023-03-01T03:27:17;0.30;99.90
25716;DHT22;13573;50.936;4.328;2023-03-01T03:29:43;0.30;99.90
25716;DHT22;13573;50.936;4.328;2023-03-01T03:32:11;0.30;99.90
25716;DHT22;13573;50.936;4.328;2023-03-01T03:34:38;0.40;99.90
25716;DHT22;13573;50.936;4.328;2023-03-01T03:37:04;0.00;99.90
25716;DHT22;13573;50.936;4.328;2023-03-01T03:39:33;-0.10;99.90
25716;DHT22;13573;50.936;4.328;2023-03-01T03:42:01;-1.00;99.90
25716;DHT22;13573;50.936;4.328;2023-03-01T03:44:27;0.50;99.90
25716;DHT22;13573;50.936;4.328;2023-03-01T03:46:54;0.30;99.90
25716;DHT22;13573;50.936;4.328;2023-03-01T03:49:21;0.30;99.90
25716;DHT22;13573;50.936;4.328;2023-03-01T03:51:47;0.30;99.90
25716;DHT22;13573;50.936;4.328;2023-03-01T03:54:14;0.30;99.90
25716;DHT22;13573;50.936;4.328;2023-03-01T03:56:40;-0.10;99.90
25716;DHT22;13573;50.936;4.328;2023-03-01T03:59:07;-0.30;99.90
25716;DHT22;13573;50.936;4.328;2023-03-01T04:01:36;0.40;99.90
25716;DHT22;13573;50.936;4.328;2023-03-01T04:04:02;-0.10;99.90
25716;DHT22;13573;50.936;4.328;2023-03-01T04:06:30;-0.40;99.90
25716;DHT22;13573;50.936;4.328;2023-03-01T04:08:56;-0.20;99.90
25716;DHT22;13573;50.936;4.328;2023-03-01T04:11:25;-0.30;99.90
25716;DHT22;13573;50.936;4.328;2023-03-01T04:13:54;-0.20;99.90
25716;DHT22;13573;50.936;4.328;2023-03-01T04:18:49;-0.40;99.90
25716;DHT22;13573;50.936;4.328;2023-03-01T04:21:16;-0.50;99.90
25716;DHT22;13573;50.936;4.328;2023-03-01T04:23:43;-0.40;99.90
25716;DHT22;13573;50.936;4.328;2023-03-01T04:26:10;-0.30;99.90
25716;DHT22;13573;50.936;4.328;2023-03-01T04:28:39;0.70;99.90
25716;DHT22;13573;50.936;4.328;2023-03-01T04:31:11;-0.40;99.90
25716;DHT22;13573;50.936;4.328;2023-03-01T04:33:42;-0.30;99.90
25716;DHT22;13573;50.936;4.328;2023-03-01T04:36:10;-0.20;99.90
25716;DHT22;13573;50.936;4.328;2023-03-01T04:38:38;-0.40;99.90
25716;DHT22;13573;50.936;4.328;2023-03-01T04:41:07;-0.60;99.90
25716;DHT22;13573;50.936;4.328;2023-03-01T04:43:35;-0.50;99.90
25716;DHT22;13573;50.936;4.328;2023-03-01T04:46:03;-1.80;99.90
25716;DHT22;13573;50.936;4.328;2023-03-01T04:48:30;-0.70;99.90
25716;DHT22;13573;50.936;4.328;2023-03-01T04:51:00;-1.70;99.90
25716;DHT22;13573;50.936;4.328;2023-03-01T04:53:27;-2.10;99.90
25716;DHT22;13573;50.936;4.328;2023-03-01T04:55:55;-1.00;99.90
25716;DHT22;13573;50.936;4.328;2023-03-01T04:58:24;-0.40;99.90
25716;DHT22;13573;50.936;4.328;2023-03-01T05:00:51;0.30;99.90
25716;DHT22;13573;50.936;4.328;2023-03-01T05:03:17;-0.60;99.90
25716;DHT22;13573;50.936;4.328;2023-03-01T05:05:45;1.00;99.90
25716;DHT22;13573;50.936;4.328;2023-03-01T05:08:13;-0.50;99.90
25716;DHT22;13573;50.936;4.328;2023-03-01T05:10:42;-0.60;99.90
25716;DHT22;13573;50.936;4.328;2023-03-01T05:13:08;-0.50;99.90
25716;DHT22;13573;50.936;4.328;2023-03-01T05:15:35;-0.20;99.90
25716;DHT22;13573;50.936;4.328;2023-03-01T05:18:02;-0.40;99.90
25716;DHT22;13573;50.936;4.328;2023-03-01T05:20:30;-0.40;99.90
25716;DHT22;13573;50.936;4.328;2023-03-01T05:22:58;-0.80;99.90
25716;DHT22;13573;50.936;4.328;2023-03-01T05:25:26;-1.70;99.90
25716;DHT22;13573;50.936;4.328;2023-03-01T05:27:52;-1.90;99.90
25716;DHT22;13573;50.936;4.328;2023-03-01T05:30:19;-0.70;99.90
25716;DHT22;13573;50.936;4.328;2023-03-01T05:32:49;-2.00;99.90
25716;DHT22;13573;50.936;4.328;2023-03-01T05:35:18;0.30;99.90
25716;DHT22;13573;50.936;4.328;2023-03-01T05:37:47;-0.90;99.90
25716;DHT22;13573;50.936;4.328;2023-03-01T05:40:16;-0.70;99.90
25716;DHT22;13573;50.936;4.328;2023-03-01T05:42:46;-2.20;99.90
25716;DHT22;13573;50.936;4.328;2023-03-01T05:45:14;-0.70;99.90
25716;DHT22;13573;50.936;4.328;2023-03-01T05:47:43;-0.90;99.90
25716;DHT22;13573;50.936;4.328;2023-03-01T05:50:21;-0.30;99.90
25716;DHT22;13573;50.936;4.328;2023-03-01T05:52:51;-0.60;99.90
25716;DHT22;13573;50.936;4.328;2023-03-01T05:55:20;-0.60;99.90
25716;DHT22;13573;50.936;4.328;2023-03-01T05:57:47;-0.30;99.90
25716;DHT22;13573;50.936;4.328;2023-03-01T06:00:18;-0.40;99.90
25716;DHT22;13573;50.936;4.328;2023-03-01T06:02:45;-1.00;99.90
25716;DHT22;13573;50.936;4.328;2023-03-01T06:05:13;-0.40;99.90
25716;DHT22;13573;50.936;4.328;2023-03-01T06:07:40;-0.90;99.90
25716;DHT22;13573;50.936;4.328;2023-03-01T06:10:09;-0.60;99.90
25716;DHT22;13573;50.936;4.328;2023-03-01T06:12:38;-0.80;99.90
25716;DHT22;13573;50.936;4.328;2023-03-01T06:15:06;-0.70;99.90
25716;DHT22;13573;50.936;4.328;2023-03-01T06:17:36;-0.80;99.90
25716;DHT22;13573;50.936;4.328;2023-03-01T06:20:05;-0.60;99.90
25716;DHT22;13573;50.936;4.328;2023-03-01T06:22:33;0.60;99.90
25716;DHT22;13573;50.936;4.328;2023-03-01T06:25:00;-0.40;99.90
25716;DHT22;13573;50.936;4.328;2023-03-01T06:27:27;-0.50;99.90
25716;DHT22;13573;50.936;4.328;2023-03-01T06:29:54;-0.80;99.90
25716;DHT22;13573;50.936;4.328;2023-03-01T06:32:20;-0.60;99.90
25716;DHT22;13573;50.936;4.328;2023-03-01T06:34:47;-0.50;99.90
25716;DHT22;13573;50.936;4.328;2023-03-01T06:37:13;-0.60;99.90
25716;DHT22;13573;50.936;4.328;2023-03-01T06:39:40;-0.70;99.90
25716;DHT22;13573;50.936;4.328;2023-03-01T06:42:08;-0.50;99.90
25716;DHT22;13573;50.936;4.328;2023-03-01T06:44:36;1.20;99.90
25716;DHT22;13573;50.936;4.328;2023-03-01T06:47:03;-0.80;99.90
25716;DHT22;13573;50.936;4.328;2023-03-01T06:51:57;-0.60;99.90
25716;DHT22;13573;50.936;4.328;2023-03-01T06:54:23;1.40;99.90
25716;DHT22;13573;50.936;4.328;2023-03-01T06:56:50;3.30;99.90
25716;DHT22;13573;50.936;4.328;2023-03-01T06:59:17;0.80;99.90
25716;DHT22;13573;50.936;4.328;2023-03-01T07:04:11;1.70;99.90
25716;DHT22;13573;50.936;4.328;2023-03-01T07:06:38;1.50;99.90
25716;DHT22;13573;50.936;4.328;2023-03-01T07:09:05;3.00;99.90
25716;DHT22;13573;50.936;4.328;2023-03-01T07:11:32;2.80;99.90
25716;DHT22;13573;50.936;4.328;2023-03-01T07:13:58;3.90;99.90
25716;DHT22;13573;50.936;4.328;2023-03-01T07:16:25;4.30;99.90
25716;DHT22;13573;50.936;4.328;2023-03-01T07:18:53;3.50;99.90
25716;DHT22;13573;50.936;4.328;2023-03-01T07:21:20;5.10;99.90
25716;DHT22;13573;50.936;4.328;2023-03-01T07:23:47;4.40;99.90
25716;DHT22;13573;50.936;4.328;2023-03-01T07:26:15;5.70;99.90
25716;DHT22;13573;50.936;4.328;2023-03-01T07:28:41;6.20;99.90
25716;DHT22;13573;50.936;4.328;2023-03-01T07:31:08;5.50;99.90
25716;DHT22;13573;50.936;4.328;2023-03-01T07:33:34;6.20;99.90
25716;DHT22;13573;50.936;4.328;2023-03-01T07:36:03;6.80;99.90
25716;DHT22;13573;50.936;4.328;2023-03-01T07:40:59;7.80;99.90
25716;DHT22;13573;50.936;4.328;2023-03-01T07:43:28;8.40;99.90
25716;DHT22;13573;50.936;4.328;2023-03-01T07:45:54;8.50;99.90
25716;DHT22;13573;50.936;4.328;2023-03-01T07:48:23;8.70;99.90
25716;DHT22;13573;50.936;4.328;2023-03-01T07:53:16;9.70;99.90
25716;DHT22;13573;50.936;4.328;2023-03-01T07:55:43;9.20;99.90
25716;DHT22;13573;50.936;4.328;2023-03-01T07:58:10;9.80;99.90
25716;DHT22;13573;50.936;4.328;2023-03-01T08:00:37;9.00;99.90
25716;DHT22;13573;50.936;4.328;2023-03-01T08:03:04;11.20;99.90
25716;DHT22;13573;50.936;4.328;2023-03-01T08:07:58;10.70;99.90
25716;DHT22;13573;50.936;4.328;2023-03-01T08:10:24;10.70;99.90
25716;DHT22;13573;50.936;4.328;2023-03-01T08:12:52;10.50;99.90
25716;DHT22;13573;50.936;4.328;2023-03-01T08:15:19;11.20;99.90
25716;DHT22;13573;50.936;4.328;2023-03-01T08:17:49;9.30;99.90
25716;DHT22;13573;50.936;4.328;2023-03-01T08:20:17;9.70;99.90
25716;DHT22;13573;50.936;4.328;2023-03-01T08:22:43;10.90;99.90
25716;DHT22;13573;50.936;4.328;2023-03-01T08:25:10;8.90;99.90
25716;DHT22;13573;50.936;4.328;2023-03-01T08:27:37;8.40;99.90
25716;DHT22;13573;50.936;4.328;2023-03-01T08:30:04;8.10;99.90
25716;DHT22;13573;50.936;4.328;2023-03-01T08:32:35;11.10;99.90
25716;DHT22;13573;50.936;4.328;2023-03-01T08:35:02;9.30;99.90
25716;DHT22;13573;50.936;4.328;2023-03-01T08:39:56;9.50;99.90
25716;DHT22;13573;50.936;4.328;2023-03-01T08:42:23;12.10;99.90
25716;DHT22;13573;50.936;4.328;2023-03-01T08:44:50;11.30;99.90
25716;DHT22;13573;50.936;4.328;2023-03-01T08:47:16;11.20;99.90
25716;DHT22;13573;50.936;4.328;2023-03-01T08:49:43;11.50;99.90
25716;DHT22;13573;50.936;4.328;2023-03-01T08:52:11;10.20;99.90
25716;DHT22;13573;50.936;4.328;2023-03-01T08:57:04;11.30;99.90
25716;DHT22;13573;50.936;4.328;2023-03-01T09:01:59;9.10;99.90
25716;DHT22;13573;50.936;4.328;2023-03-01T09:04:26;9.00;99.90
25716;DHT22;13573;50.936;4.328;2023-03-01T09:06:53;8.90;99.90
25716;DHT22;13573;50.936;4.328;2023-03-01T09:09:19;9.40;99.90
25716;DHT22;13573;50.936;4.328;2023-03-01T09:11:46;9.10;99.90
25716;DHT22;13573;50.936;4.328;2023-03-01T09:14:15;11.70;99.90
25716;DHT22;13573;50.936;4.328;2023-03-01T09:16:43;10.90;99.90
25716;DHT22;13573;50.936;4.328;2023-03-01T09:21:37;9.70;99.90
25716;DHT22;13573;50.936;4.328;2023-03-01T09:24:04;11.00;99.90
25716;DHT22;13573;50.936;4.328;2023-03-01T09:26:31;11.40;99.90
25716;DHT22;13573;50.936;4.328;2023-03-01T09:28:57;11.90;99.90
25716;DHT22;13573;50.936;4.328;2023-03-01T09:31:24;12.40;99.90
25716;DHT22;13573;50.936;4.328;2023-03-01T09:33:52;11.70;99.90
25716;DHT22;13573;50.936;4.328;2023-03-01T09:36:23;11.50;99.90
25716;DHT22;13573;50.936;4.328;2023-03-01T09:38:51;11.80;99.90
25716;DHT22;13573;50.936;4.328;2023-03-01T09:41:26;11.10;99.90
25716;DHT22;13573;50.936;4.328;2023-03-01T09:43:54;12.10;99.90
25716;DHT22;13573;50.936;4.328;2023-03-01T09:46:23;11.40;99.90
25716;DHT22;13573;50.936;4.328;2023-03-01T09:48:56;11.80;99.90
25716;DHT22;13573;50.936;4.328;2023-03-01T09:51:30;11.90;99.90
25716;DHT22;13573;50.936;4.328;2023-03-01T09:53:58;11.60;99.90
25716;DHT22;13573;50.936;4.328;2023-03-01T09:57:05;12.80;99.90
25716;DHT22;13573;50.936;4.328;2023-03-01T09:59:30;12.80;99.90
25716;DHT22;13573;50.936;4.328;2023-03-01T10:02:24;11.30;99.90
25716;DHT22;13573;50.936;4.328;2023-03-01T10:04:55;12.60;99.90
25716;DHT22;13573;50.936;4.328;2023-03-01T10:09:58;14.20;99.90
25716;DHT22;13573;50.936;4.328;2023-03-01T10:12:31;14.40;98.20
25716;DHT22;13573;50.936;4.328;2023-03-01T10:15:19;14.60;99.90
25716;DHT22;13573;50.936;4.328;2023-03-01T10:17:52;11.90;99.90
25716;DHT22;13573;50.936;4.328;2023-03-01T10:25:30;12.70;99.90
25716;DHT22;13573;50.936;4.328;2023-03-01T10:27:57;13.50;99.90
25716;DHT22;13573;50.936;4.328;2023-03-01T10:30:39;13.60;99.90
25716;DHT22;13573;50.936;4.328;2023-03-01T10:33:15;12.70;99.90
25716;DHT22;13573;50.936;4.328;2023-03-01T10:35:42;13.70;99.90
25716;DHT22;13573;50.936;4.328;2023-03-01T10:43:12;14.40;99.90
25716;DHT22;13573;50.936;4.328;2023-03-01T10:45:39;13.90;99.90
25716;DHT22;13573;50.936;4.328;2023-03-01T10:48:25;14.10;97.00
25716;DHT22;13573;50.936;4.328;2023-03-01T10:51:07;12.00;99.90
25716;DHT22;13573;50.936;4.328;2023-03-01T10:53:37;13.50;99.90
25716;DHT22;13573;50.936;4.328;2023-03-01T11:06:12;13.70;99.90
25716;DHT22;13573;50.936;4.328;2023-03-01T11:08:39;12.00;99.90
25716;DHT22;13573;50.936;4.328;2023-03-01T11:11:18;14.00;99.90
25716;DHT22;13573;50.936;4.328;2023-03-01T11:14:07;13.50;99.90
25716;DHT22;13573;50.936;4.328;2023-03-01T11:16:38;13.60;99.90
25716;DHT22;13573;50.936;4.328;2023-03-01T11:19:19;13.60;99.90
25716;DHT22;13573;50.936;4.328;2023-03-01T11:21:58;13.30;99.90
25716;DHT22;13573;50.936;4.328;2023-03-01T11:30:01;14.00;99.90
25716;DHT22;13573;50.936;4.328;2023-03-01T11:32:34;13.40;99.90
25716;DHT22;13573;50.936;4.328;2023-03-01T11:35:02;12.10;99.90
25716;DHT22;13573;50.936;4.328;2023-03-01T11:37:34;12.20;99.90
25716;DHT22;13573;50.936;4.328;2023-03-01T11:40:10;14.60;99.90
25716;DHT22;13573;50.936;4.328;2023-03-01T11:42:48;15.40;99.90
25716;DHT22;13573;50.936;4.328;2023-03-01T11:45:15;16.00;99.90
25716;DHT22;13573;50.936;4.328;2023-03-01T11:48:07;16.20;99.90
25716;DHT22;13573;50.936;4.328;2023-03-01T11:50:39;16.90;99.30
25716;DHT22;13573;50.936;4.328;2023-03-01T11:54:37;16.90;97.80
25716;DHT22;13573;50.936;4.328;2023-03-01T11:56:16;17.30;98.40
25716;DHT22;13573;50.936;4.328;2023-03-01T11:58:52;15.50;99.50
25716;DHT22;13573;50.936;4.328;2023-03-01T12:06:57;16.40;97.30
25716;DHT22;13573;50.936;4.328;2023-03-01T12:09:38;17.20;96.80
25716;DHT22;13573;50.936;4.328;2023-03-01T12:12:16;15.50;97.60
25716;DHT22;13573;50.936;4.328;2023-03-01T12:17:25;14.90;98.50
25716;DHT22;13573;50.936;4.328;2023-03-01T12:20:02;16.80;98.00
25716;DHT22;13573;50.936;4.328;2023-03-01T12:22:31;16.60;97.70
25716;DHT22;13573;50.936;4.328;2023-03-01T12:25:18;16.10;97.70
25716;DHT22;13573;50.936;4.328;2023-03-01T12:28:08;16.40;98.70
25716;DHT22;13573;50.936;4.328;2023-03-01T12:30:56;17.80;97.30
25716;DHT22;13573;50.936;4.328;2023-03-01T12:33:33;17.00;97.10
25716;DHT22;13573;50.936;4.328;2023-03-01T12:36:09;18.00;97.20
25716;DHT22;13573;50.936;4.328;2023-03-01T12:38:42;17.50;96.30
25716;DHT22;13573;50.936;4.328;2023-03-01T12:44:47;18.60;87.80
25716;DHT22;13573;50.936;4.328;2023-03-01T12:47:37;18.30;87.90
25716;DHT22;13573;50.936;4.328;2023-03-01T12:50:10;18.80;95.20
25716;DHT22;13573;50.936;4.328;2023-03-01T12:52:40;17.50;94.60
25716;DHT22;13573;50.936;4.328;2023-03-01T12:55:26;19.50;95.20
25716;DHT22;13573;50.936;4.328;2023-03-01T12:58:13;18.50;94.50
25716;DHT22;13573;50.936;4.328;2023-03-01T13:00:42;19.70;84.50
25716;DHT22;13573;50.936;4.328;2023-03-01T13:03:32;18.10;93.70
25716;DHT22;13573;50.936;4.328;2023-03-01T13:06:07;16.10;94.50
25716;DHT22;13573;50.936;4.328;2023-03-01T13:08:43;15.90;94.90
25716;DHT22;13573;50.936;4.328;2023-03-01T13:11:20;15.60;94.80
25716;DHT22;13573;50.936;4.328;2023-03-01T13:13:47;17.10;87.20
25716;DHT22;13573;50.936;4.328;2023-03-01T13:16:39;18.00;86.70
25716;DHT22;13573;50.936;4.328;2023-03-01T13:19:05;15.00;95.00
25716;DHT22;13573;50.936;4.328;2023-03-01T13:21:30;14.90;95.60
25716;DHT22;13573;50.936;4.328;2023-03-01T13:23:57;15.60;96.10
25716;DHT22;13573;50.936;4.328;2023-03-01T13:26:23;15.50;94.50
25716;DHT22;13573;50.936;4.328;2023-03-01T13:28:52;16.10;94.20
25716;DHT22;13573;50.936;4.328;2023-03-01T13:34:41;17.10;94.00
25716;DHT22;13573;50.936;4.328;2023-03-01T13:37:10;16.40;91.50
25716;DHT22;13573;50.936;4.328;2023-03-01T13:39:40;16.60;94.60
25716;DHT22;13573;50.936;4.328;2023-03-01T13:44:43;17.80;93.00
25716;DHT22;13573;50.936;4.328;2023-03-01T13:47:16;16.10;93.10
25716;DHT22;13573;50.936;4.328;2023-03-01T13:49:47;17.40;83.30
25716;DHT22;13573;50.936;4.328;2023-03-01T13:52:44;18.30;82.40
25716;DHT22;13573;50.936;4.328;2023-03-01T13:55:21;18.90;81.40
25716;DHT22;13573;50.936;4.328;2023-03-01T13:57:53;16.60;92.90
25716;DHT22;13573;50.936;4.328;2023-03-01T14:03:16;17.80;93.50
25716;DHT22;13573;50.936;4.328;2023-03-01T14:08:22;16.80;93.30
25716;DHT22;13573;50.936;4.328;2023-03-01T14:16:29;17.90;83.40
25716;DHT22;13573;50.936;4.328;2023-03-01T14:19:10;16.10;93.90
25716;DHT22;13573;50.936;4.328;2023-03-01T14:21:35;15.90;94.90
25716;DHT22;13573;50.936;4.328;2023-03-01T14:24:03;15.40;93.50
25716;DHT22;13573;50.936;4.328;2023-03-01T14:26:31;16.60;85.50
25716;DHT22;13573;50.936;4.328;2023-03-01T14:29:00;17.60;93.60
25716;DHT22;13573;50.936;4.328;2023-03-01T14:31:36;16.40;93.00
25716;DHT22;13573;50.936;4.328;2023-03-01T14:34:03;17.80;82.80
25716;DHT22;13573;50.936;4.328;2023-03-01T14:36:32;16.40;94.00
25716;DHT22;13573;50.936;4.328;2023-03-01T14:38:58;15.50;94.70
25716;DHT22;13573;50.936;4.328;2023-03-01T14:41:28;14.50;94.50
25716;DHT22;13573;50.936;4.328;2023-03-01T14:43:58;15.00;85.60
25716;DHT22;13573;50.936;4.328;2023-03-01T14:46:35;14.70;95.70
25716;DHT22;13573;50.936;4.328;2023-03-01T14:49:10;14.90;95.00
25716;DHT22;13573;50.936;4.328;2023-03-01T14:51:38;14.80;95.20
25716;DHT22;13573;50.936;4.328;2023-03-01T14:54:18;15.50;96.20
25716;DHT22;13573;50.936;4.328;2023-03-01T14:56:45;14.90;95.40
25716;DHT22;13573;50.936;4.328;2023-03-01T14:59:12;15.10;95.20
25716;DHT22;13573;50.936;4.328;2023-03-01T15:01:41;15.80;94.80
25716;DHT22;13573;50.936;4.328;2023-03-01T15:04:11;15.40;86.30
25716;DHT22;13573;50.936;4.328;2023-03-01T15:06:38;15.30;94.10
25716;DHT22;13573;50.936;4.328;2023-03-01T15:11:33;16.70;83.40
25716;DHT22;13573;50.936;4.328;2023-03-01T15:14:01;14.30;94.60
25716;DHT22;13573;50.936;4.328;2023-03-01T15:16:33;13.10;95.30
25716;DHT22;13573;50.936;4.328;2023-03-01T15:19:03;14.50;86.50
25716;DHT22;13573;50.936;4.328;2023-03-01T15:21:33;13.60;89.80
25716;DHT22;13573;50.936;4.328;2023-03-01T15:24:14;13.40;89.80
25716;DHT22;13573;50.936;4.328;2023-03-01T15:26:41;12.00;98.50
25716;DHT22;13573;50.936;4.328;2023-03-01T15:29:18;10.70;98.20
25716;DHT22;13573;50.936;4.328;2023-03-01T15:34:25;12.00;98.30
25716;DHT22;13573;50.936;4.328;2023-03-01T15:36:53;11.90;90.70
25716;DHT22;13573;50.936;4.328;2023-03-01T15:39:33;11.60;91.40
25716;DHT22;13573;50.936;4.328;2023-03-01T15:42:02;10.00;99.20
25716;DHT22;13573;50.936;4.328;2023-03-01T15:44:32;12.10;99.90
25716;DHT22;13573;50.936;4.328;2023-03-01T15:46:59;11.20;99.90
25716;DHT22;13573;50.936;4.328;2023-03-01T15:49:33;8.90;99.90
25716;DHT22;13573;50.936;4.328;2023-03-01T15:51:59;10.90;99.90
25716;DHT22;13573;50.936;4.328;2023-03-01T15:54:27;9.50;99.90
25716;DHT22;13573;50.936;4.328;2023-03-01T15:56:54;8.40;99.90
25716;DHT22;13573;50.936;4.328;2023-03-01T15:59:21;8.70;99.90
25716;DHT22;13573;50.936;4.328;2023-03-01T16:01:48;9.00;99.90
25716;DHT22;13573;50.936;4.328;2023-03-01T16:04:17;8.80;99.90
25716;DHT22;13573;50.936;4.328;2023-03-01T16:06:50;8.80;99.90
25716;DHT22;13573;50.936;4.328;2023-03-01T16:09:21;9.00;96.40
25716;DHT22;13573;50.936;4.328;2023-03-01T16:11:48;8.90;99.90
25716;DHT22;13573;50.936;4.328;2023-03-01T16:14:15;9.20;99.90
25716;DHT22;13573;50.936;4.328;2023-03-01T16:16:43;8.80;99.90
25716;DHT22;13573;50.936;4.328;2023-03-01T16:19:10;8.80;99.90
25716;DHT22;13573;50.936;4.328;2023-03-01T16:21:37;8.70;99.90
25716;DHT22;13573;50.936;4.328;2023-03-01T16:24:04;8.80;99.90
25716;DHT22;13573;50.936;4.328;2023-03-01T16:26:31;8.60;99.90
25716;DHT22;13573;50.936;4.328;2023-03-01T16:28:58;8.90;99.90
25716;DHT22;13573;50.936;4.328;2023-03-01T16:31:25;8.00;99.90
25716;DHT22;13573;50.936;4.328;2023-03-01T16:33:55;8.10;99.90
25716;DHT22;13573;50.936;4.328;2023-03-01T16:36:22;8.60;99.90
25716;DHT22;13573;50.936;4.328;2023-03-01T16:38:51;8.50;99.90
25716;DHT22;13573;50.936;4.328;2023-03-01T16:41:20;7.00;99.90
25716;DHT22;13573;50.936;4.328;2023-03-01T16:43:47;8.40;98.60
25716;DHT22;13573;50.936;4.328;2023-03-01T16:46:23;8.50;98.00
25716;DHT22;13573;50.936;4.328;2023-03-01T16:48:51;8.20;97.40
25716;DHT22;13573;50.936;4.328;2023-03-01T16:51:19;8.40;98.10
25716;DHT22;13573;50.936;4.328;2023-03-01T16:53:46;8.10;99.90
25716;DHT22;13573;50.936;4.328;2023-03-01T16:58:40;8.20;99.90
25716;DHT22;13573;50.936;4.328;2023-03-01T17:01:14;8.10;99.90
25716;DHT22;13573;50.936;4.328;2023-03-01T17:03:42;8.00;99.00
25716;DHT22;13573;50.936;4.328;2023-03-01T17:06:12;8.00;98.20
25716;DHT22;13573;50.936;4.328;2023-03-01T17:08:40;8.30;99.90
25716;DHT22;13573;50.936;4.328;2023-03-01T17:11:09;8.00;98.20
25716;DHT22;13573;50.936;4.328;2023-03-01T17:13:37;7.40;99.90
25716;DHT22;13573;50.936;4.328;2023-03-01T17:16:08;7.50;98.70
25716;DHT22;13573;50.936;4.328;2023-03-01T17:18:35;8.00;99.90
25716;DHT22;13573;50.936;4.328;2023-03-01T17:23:31;7.40;99.80
25716;DHT22;13573;50.936;4.328;2023-03-01T17:25:58;7.10;99.90
25716;DHT22;13573;50.936;4.328;2023-03-01T17:28:27;5.80;99.90
25716;DHT22;13573;50.936;4.328;2023-03-01T17:30:56;6.80;99.90
25716;DHT22;13573;50.936;4.328;2023-03-01T17:33:22;6.70;99.90